createdAt,value
2017-11-29T00:01:57.176Z,92.90
2017-11-29T00:04:24.676Z,92.90
2017-11-29T00:06:52.184Z,92.90
2017-11-29T00:09:20.478Z,93.00
2017-11-29T00:11:47.985Z,92.90
2017-11-29T00:14:15.512Z,92.90
2017-11-29T00:16:43.012Z,93.00
2017-11-29T00:19:10.526Z,93.00
2017-11-29T00:21:38.084Z,92.90
2017-11-29T00:24:05.579Z,93.00
2017-11-29T00:26:33.868Z,93.20
2017-11-29T00:29:01.370Z,93.20
2017-11-29T00:31:28.892Z,93.20
2017-11-29T00:33:57.156Z,93.80
2017-11-29T00:36:24.656Z,93.50
2017-11-29T00:38:52.180Z,93.50
2017-11-29T00:41:19.681Z,93.70
2017-11-29T00:43:47.204Z,94.00
2017-11-29T00:46:15.463Z,93.10
2017-11-29T00:48:42.993Z,93.10
2017-11-29T00:51:10.521Z,93.10
2017-11-29T00:53:38.029Z,93.10
2017-11-29T00:56:05.568Z,93.00
2017-11-29T00:58:33.067Z,93.00
2017-11-29T01:01:01.361Z,93.30
2017-11-29T01:03:29.628Z,93.30
2017-11-29T01:05:57.919Z,93.10
2017-11-29T01:08:25.421Z,93.10
2017-11-29T01:10:52.945Z,93.00
2017-11-29T01:13:20.449Z,92.80
2017-11-29T01:15:47.951Z,92.40
2017-11-29T01:18:16.249Z,92.10
2017-11-29T01:20:43.748Z,92.10
2017-11-29T01:23:11.273Z,92.10
2017-11-29T01:25:38.776Z,92.20
2017-11-29T01:28:06.300Z,92.30
2017-11-29T01:30:33.801Z,92.30
2017-11-29T01:33:01.324Z,92.70
2017-11-29T01:35:28.823Z,92.40
2017-11-29T01:37:57.091Z,92.40
2017-11-29T01:40:24.612Z,92.30
2017-11-29T01:42:52.120Z,92.60
2017-11-29T01:45:19.664Z,92.40
2017-11-29T01:47:47.165Z,92.50
2017-11-29T01:50:14.697Z,92.50
2017-11-29T01:52:42.973Z,92.40
2017-11-29T01:55:10.476Z,92.40
2017-11-29T01:57:38.000Z,92.40
2017-11-29T02:00:05.513Z,92.40
2017-11-29T02:02:33.037Z,92.30
2017-11-29T02:05:00.540Z,92.60
2017-11-29T02:07:28.068Z,92.60
2017-11-29T02:09:55.569Z,92.60
2017-11-29T02:12:23.092Z,92.50
2017-11-29T02:14:50.596Z,92.60
2017-11-29T02:17:18.865Z,92.60
2017-11-29T02:19:46.389Z,92.50
2017-11-29T02:22:13.906Z,92.70
2017-11-29T02:24:41.427Z,92.70
2017-11-29T02:27:08.928Z,92.90
2017-11-29T02:29:36.452Z,92.90
2017-11-29T02:32:03.956Z,93.00
2017-11-29T02:34:31.480Z,93.00
2017-11-29T02:36:59.751Z,92.90
2017-11-29T02:39:28.026Z,93.10
2017-11-29T02:42:07.492Z,93.00
2017-11-29T02:44:35.002Z,93.30
2017-11-29T02:47:02.532Z,93.50
2017-11-29T02:49:30.037Z,93.50
2017-11-29T02:51:57.561Z,93.60
2017-11-29T02:54:25.075Z,93.70
2017-11-29T02:56:53.352Z,93.90
2017-11-29T02:59:21.640Z,94.00
2017-11-29T03:01:49.151Z,94.00
2017-11-29T03:04:16.682Z,93.90
2017-11-29T03:06:44.180Z,93.80
2017-11-29T03:09:11.706Z,93.70
2017-11-29T03:11:39.204Z,93.50
2017-11-29T03:14:06.733Z,93.60
2017-11-29T03:16:34.232Z,93.50
2017-11-29T03:19:02.504Z,93.60
2017-11-29T03:21:30.795Z,93.70
2017-11-29T03:23:59.061Z,93.70
2017-11-29T03:26:27.371Z,93.70
2017-11-29T03:28:54.863Z,93.70
2017-11-29T03:31:22.390Z,93.70
2017-11-29T03:33:49.892Z,93.50
2017-11-29T03:36:17.416Z,93.30
2017-11-29T03:38:44.916Z,93.30
2017-11-29T03:41:12.440Z,93.30
2017-11-29T03:43:39.940Z,93.40
2017-11-29T03:46:08.208Z,93.40
2017-11-29T03:48:35.732Z,93.40
2017-11-29T03:51:03.241Z,93.30
2017-11-29T03:53:31.519Z,93.10
2017-11-29T03:55:59.771Z,93.10
2017-11-29T03:58:27.288Z,93.10
2017-11-29T04:00:54.782Z,93.00
2017-11-29T04:03:22.271Z,93.10
2017-11-29T04:05:50.556Z,92.90
2017-11-29T04:08:18.051Z,92.90
2017-11-29T04:10:45.568Z,92.90
2017-11-29T04:13:13.825Z,93.00
2017-11-29T04:15:41.331Z,93.00
2017-11-29T04:18:08.824Z,93.10
2017-11-29T04:20:36.341Z,93.00
2017-11-29T04:23:03.835Z,92.80
2017-11-29T04:25:31.328Z,92.90
2017-11-29T04:27:59.607Z,92.70
2017-11-29T04:30:27.863Z,92.70
2017-11-29T04:32:55.379Z,92.70
2017-11-29T04:35:22.872Z,92.70
2017-11-29T04:37:50.359Z,92.50
2017-11-29T04:40:18.648Z,92.70
2017-11-29T04:42:46.147Z,92.70
2017-11-29T04:45:13.659Z,92.70
2017-11-29T04:47:41.148Z,92.90
2017-11-29T04:50:08.656Z,92.90
2017-11-29T04:52:36.911Z,93.10
2017-11-29T04:55:04.428Z,93.10
2017-11-29T04:57:31.920Z,93.00
2017-11-29T04:59:59.409Z,92.90
2017-11-29T05:02:27.686Z,92.90
2017-11-29T05:04:55.946Z,92.70
2017-11-29T05:07:23.463Z,92.70
2017-11-29T05:09:50.954Z,92.70
2017-11-29T05:12:18.462Z,92.80
2017-11-29T05:14:45.956Z,92.70
2017-11-29T05:17:13.574Z,92.70
2017-11-29T05:19:41.083Z,92.70
2017-11-29T05:22:08.574Z,92.80
2017-11-29T05:24:36.854Z,93.10
2017-11-29T05:27:05.110Z,93.10
2017-11-29T05:29:32.629Z,93.10
2017-11-29T05:32:00.128Z,93.40
2017-11-29T05:34:28.394Z,92.90
2017-11-29T05:36:55.908Z,92.90
2017-11-29T05:39:23.412Z,93.00
2017-11-29T05:41:50.923Z,93.10
2017-11-29T05:44:18.414Z,93.20
2017-11-29T05:46:45.932Z,93.20
2017-11-29T05:49:13.423Z,93.20
2017-11-29T05:51:40.927Z,93.20
2017-11-29T05:54:09.237Z,93.10
2017-11-29T05:56:36.727Z,93.10
2017-11-29T05:59:04.243Z,93.20
2017-11-29T06:01:31.735Z,93.20
2017-11-29T06:03:59.239Z,93.20
2017-11-29T06:06:27.522Z,93.30
2017-11-29T06:08:55.784Z,93.30
2017-11-29T06:11:24.080Z,93.30
2017-11-29T06:13:51.575Z,93.30
2017-11-29T06:16:19.091Z,93.30
2017-11-29T06:18:47.348Z,93.40
2017-11-29T06:21:14.863Z,93.30
2017-11-29T06:23:42.368Z,93.70
2017-11-29T06:26:10.636Z,93.10
2017-11-29T06:28:38.150Z,93.10
2017-11-29T06:31:05.700Z,92.90
2017-11-29T06:33:33.211Z,93.00
2017-11-29T06:36:00.703Z,93.10
2017-11-29T06:38:28.191Z,93.20
2017-11-29T06:40:55.708Z,93.10
2017-11-29T06:43:23.963Z,93.20
2017-11-29T06:45:52.987Z,93.30
2017-11-29T06:48:20.483Z,93.30
2017-11-29T06:50:48.002Z,93.40
2017-11-29T06:53:15.507Z,93.20
2017-11-29T06:55:43.007Z,93.00
2017-11-29T06:58:11.290Z,92.60
2017-11-29T07:00:39.547Z,92.50
2017-11-29T07:03:07.059Z,92.50
2017-11-29T07:05:34.551Z,92.50
2017-11-29T07:08:02.068Z,92.60
2017-11-29T07:10:29.563Z,92.50
2017-11-29T07:12:57.086Z,92.80
2017-11-29T07:15:24.583Z,92.40
2017-11-29T07:17:52.071Z,92.40
2017-11-29T07:20:20.354Z,92.40
2017-11-29T07:22:47.842Z,92.40
2017-11-29T07:25:15.367Z,92.30
2017-11-29T07:27:43.631Z,92.30
2017-11-29T07:30:11.891Z,92.70
2017-11-29T07:32:39.416Z,92.40
2017-11-29T07:35:06.907Z,92.30
2017-11-29T07:37:34.419Z,92.40
2017-11-29T07:40:01.906Z,92.20
2017-11-29T07:42:29.422Z,92.30
2017-11-29T07:44:56.916Z,92.20
2017-11-29T07:47:24.412Z,92.20
2017-11-29T07:49:51.931Z,92.20
2017-11-29T07:52:19.423Z,92.40
2017-11-29T07:54:46.936Z,92.20
2017-11-29T07:57:14.427Z,92.10
2017-11-29T07:59:41.918Z,92.40
2017-11-29T08:02:09.447Z,92.50
2017-11-29T08:04:36.939Z,92.40
2017-11-29T08:07:05.215Z,92.20
2017-11-29T08:09:33.475Z,92.10
2017-11-29T08:12:01.750Z,92.40
2017-11-29T08:14:29.239Z,92.30
2017-11-29T08:16:56.736Z,92.30
2017-11-29T08:19:24.246Z,92.40
2017-11-29T08:21:51.744Z,92.30
2017-11-29T08:24:19.268Z,92.10
2017-11-29T08:26:46.768Z,92.00
2017-11-29T08:29:14.285Z,92.10
2017-11-29T08:31:41.775Z,92.00
2017-11-29T08:34:09.284Z,91.90
2017-11-29T08:36:37.562Z,91.90
2017-11-29T08:39:05.842Z,92.00
2017-11-29T08:41:34.103Z,92.00
2017-11-29T08:44:02.363Z,91.80
2017-11-29T08:46:30.649Z,91.40
2017-11-29T08:48:58.926Z,91.20
2017-11-29T08:51:26.435Z,91.30
2017-11-29T08:53:53.934Z,91.30
2017-11-29T08:56:21.447Z,91.30
2017-11-29T08:58:48.943Z,91.40
2017-11-29T09:01:16.457Z,91.00
2017-11-29T09:03:43.955Z,90.70
2017-11-29T09:06:11.453Z,90.10
2017-11-29T09:08:39.735Z,90.90
2017-11-29T09:11:07.986Z,91.10
2017-11-29T09:13:35.502Z,91.10
2017-11-29T09:16:03.008Z,90.90
2017-11-29T09:18:31.287Z,90.90
2017-11-29T09:20:59.547Z,90.90
2017-11-29T09:23:27.039Z,90.90
2017-11-29T09:25:54.554Z,90.50
2017-11-29T09:28:22.052Z,90.70
2017-11-29T09:30:50.335Z,90.70
2017-11-29T09:33:17.835Z,90.60
2017-11-29T09:35:45.331Z,90.70
2017-11-29T09:38:13.609Z,90.70
2017-11-29T09:40:41.878Z,91.10
2017-11-29T09:43:09.391Z,91.00
2017-11-29T09:45:36.887Z,90.80
2017-11-29T09:48:04.400Z,91.10
2017-11-29T09:50:31.903Z,91.20
2017-11-29T09:52:59.399Z,91.00
2017-11-29T09:55:26.921Z,91.20
2017-11-29T09:57:55.349Z,91.30
2017-11-29T10:00:22.847Z,91.40
2017-11-29T10:02:50.369Z,91.60
2017-11-29T10:05:17.876Z,91.60
2017-11-29T10:07:45.392Z,91.20
2017-11-29T10:10:12.886Z,91.30
2017-11-29T10:12:40.385Z,91.50
2017-11-29T10:15:07.908Z,91.40
2017-11-29T10:17:35.403Z,91.50
2017-11-29T10:20:02.922Z,91.60
2017-11-29T10:22:30.456Z,91.90
2017-11-29T10:24:57.947Z,91.60
2017-11-29T10:27:25.468Z,91.50
2017-11-29T10:29:52.962Z,91.70
2017-11-29T10:32:20.483Z,91.00
2017-11-29T10:34:47.979Z,90.50
2017-11-29T10:37:15.468Z,89.10
2017-11-29T10:39:42.988Z,89.40
2017-11-29T10:42:10.486Z,89.70
2017-11-29T10:44:38.076Z,90.10
2017-11-29T10:47:05.575Z,89.30
2017-11-29T10:49:33.090Z,90.20
2017-11-29T10:52:00.583Z,90.50
2017-11-29T10:54:28.096Z,90.10
2017-11-29T10:56:55.625Z,90.10
2017-11-29T10:59:23.920Z,90.00
2017-11-29T11:01:51.452Z,90.00
2017-11-29T11:04:18.967Z,89.90
2017-11-29T11:06:46.480Z,90.20
2017-11-29T11:09:14.768Z,90.10
2017-11-29T11:11:42.283Z,90.10
2017-11-29T11:14:09.808Z,90.70
2017-11-29T11:16:37.329Z,90.80
2017-11-29T11:19:05.624Z,90.90
2017-11-29T11:21:33.153Z,90.80
2017-11-29T11:24:00.664Z,90.70
2017-11-29T11:26:28.214Z,90.50
2017-11-29T11:28:56.417Z,90.60
2017-11-29T11:31:23.944Z,90.50
2017-11-29T11:33:51.441Z,89.70
2017-11-29T11:36:18.965Z,89.40
2017-11-29T11:38:46.469Z,89.90
2017-11-29T11:41:14.744Z,90.00
2017-11-29T11:43:42.263Z,90.00
2017-11-29T11:46:09.768Z,89.90
2017-11-29T11:48:37.305Z,90.00
2017-11-29T11:51:04.808Z,89.00
2017-11-29T11:53:32.332Z,88.30
2017-11-29T11:55:59.834Z,89.30
2017-11-29T11:58:27.360Z,88.70
2017-11-29T12:00:54.864Z,87.80
2017-11-29T12:03:22.373Z,87.70
2017-11-29T12:05:50.667Z,89.50
2017-11-29T12:08:18.157Z,89.30
2017-11-29T12:10:45.692Z,89.00
2017-11-29T12:13:13.198Z,87.90
2017-11-29T12:15:40.695Z,88.60
2017-11-29T12:18:08.975Z,87.30
2017-11-29T12:20:36.471Z,87.30
2017-11-29T12:23:03.996Z,87.30
2017-11-29T12:25:32.260Z,87.30
2017-11-29T12:27:59.793Z,87.20
2017-11-29T12:30:27.303Z,87.10
2017-11-29T12:32:54.801Z,86.10
2017-11-29T12:35:22.323Z,86.40
2017-11-29T12:37:49.821Z,86.60
2017-11-29T12:40:17.345Z,86.10
2017-11-29T12:42:44.848Z,86.80
2017-11-29T12:45:12.348Z,86.90
2017-11-29T12:47:39.876Z,85.80
2017-11-29T12:50:19.285Z,86.30
2017-11-29T12:52:46.809Z,86.10
2017-11-29T12:55:14.317Z,86.60
2017-11-29T12:57:41.843Z,85.90
2017-11-29T13:00:09.375Z,86.60
2017-11-29T13:02:37.642Z,86.50
2017-11-29T13:05:05.172Z,86.50
2017-11-29T13:07:32.681Z,85.10
2017-11-29T13:10:00.220Z,85.10
2017-11-29T13:12:28.505Z,85.40
2017-11-29T13:14:56.799Z,85.10
2017-11-29T13:17:24.307Z,85.10
2017-11-29T13:19:51.812Z,85.90
2017-11-29T13:22:19.340Z,85.60
2017-11-29T13:24:46.891Z,85.30
2017-11-29T13:27:14.408Z,85.90
2017-11-29T13:29:41.912Z,87.20
2017-11-29T13:32:09.441Z,85.10
2017-11-29T13:34:36.953Z,86.50
2017-11-29T13:37:04.481Z,86.30
2017-11-29T13:39:31.981Z,86.50
2017-11-29T13:41:59.476Z,86.40
2017-11-29T13:44:27.002Z,86.10
2017-11-29T13:46:54.507Z,86.60
2017-11-29T13:49:22.022Z,86.50
2017-11-29T13:51:49.534Z,86.30
2017-11-29T13:54:17.070Z,86.30
2017-11-29T13:56:44.576Z,84.70
2017-11-29T13:59:12.094Z,85.30
2017-11-29T14:01:39.621Z,86.20
2017-11-29T14:04:07.121Z,85.50
2017-11-29T14:06:34.641Z,86.70
2017-11-29T14:09:02.144Z,85.90
2017-11-29T14:11:29.681Z,85.50
2017-11-29T14:13:57.185Z,84.70
2017-11-29T14:16:25.461Z,85.60
2017-11-29T14:18:53.781Z,86.00
2017-11-29T14:21:21.273Z,86.00
2017-11-29T14:23:48.792Z,85.50
2017-11-29T14:26:16.295Z,85.20
2017-11-29T14:28:43.823Z,84.60
2017-11-29T14:31:12.268Z,84.00
2017-11-29T14:33:39.773Z,85.80
2017-11-29T14:36:07.289Z,83.30
2017-11-29T14:38:34.788Z,83.00
2017-11-29T14:41:02.303Z,83.60
2017-11-29T14:43:29.809Z,83.70
2017-11-29T14:45:57.340Z,83.50
2017-11-29T14:48:24.845Z,85.10
2017-11-29T14:50:53.111Z,84.70
2017-11-29T14:53:20.633Z,84.60
2017-11-29T14:55:48.141Z,84.30
2017-11-29T14:58:15.655Z,83.00
2017-11-29T15:00:43.152Z,83.20
2017-11-29T15:03:10.670Z,84.20
2017-11-29T15:05:38.181Z,84.30
2017-11-29T15:08:06.468Z,84.10
2017-11-29T15:10:34.732Z,84.40
2017-11-29T15:13:03.004Z,84.10
2017-11-29T15:15:31.296Z,84.50
2017-11-29T15:17:58.793Z,84.40
2017-11-29T15:20:26.326Z,85.80
2017-11-29T15:22:53.910Z,85.80
2017-11-29T15:25:21.435Z,86.50
2017-11-29T15:27:48.932Z,87.10
2017-11-29T15:30:16.424Z,88.20
2017-11-29T15:32:43.940Z,87.70
2017-11-29T15:35:11.432Z,87.80
2017-11-29T15:37:38.948Z,88.30
2017-11-29T15:40:06.444Z,88.20
2017-11-29T15:42:33.967Z,88.30
2017-11-29T15:45:01.464Z,88.30
2017-11-29T15:47:28.990Z,89.20
2017-11-29T15:49:56.495Z,88.60
2017-11-29T15:52:24.759Z,88.60
2017-11-29T15:54:52.284Z,88.60
2017-11-29T15:57:19.787Z,88.80
2017-11-29T15:59:47.301Z,89.10
2017-11-29T16:02:14.791Z,89.40
2017-11-29T16:04:42.312Z,89.50
2017-11-29T16:07:09.804Z,90.00
2017-11-29T16:09:37.299Z,90.10
2017-11-29T16:12:04.814Z,90.10
2017-11-29T16:14:32.316Z,90.30
2017-11-29T16:17:00.525Z,90.30
2017-11-29T16:19:28.024Z,90.50
2017-11-29T16:21:55.526Z,90.40
2017-11-29T16:24:23.060Z,90.30
2017-11-29T16:26:51.327Z,90.60
2017-11-29T16:29:19.611Z,90.70
2017-11-29T16:31:47.915Z,91.00
2017-11-29T16:34:15.440Z,91.00
2017-11-29T16:36:43.717Z,90.90
2017-11-29T16:39:11.992Z,90.90
2017-11-29T16:41:39.535Z,90.90
2017-11-29T16:44:07.048Z,91.00
2017-11-29T16:46:34.577Z,91.10
2017-11-29T16:49:02.857Z,91.20
2017-11-29T16:51:31.131Z,91.00
2017-11-29T16:53:58.652Z,91.00
2017-11-29T16:56:26.232Z,91.10
2017-11-29T16:58:54.511Z,90.90
2017-11-29T17:01:22.029Z,90.90
2017-11-29T17:03:49.516Z,90.90
2017-11-29T17:06:17.043Z,90.80
2017-11-29T17:08:44.548Z,91.00
2017-11-29T17:11:12.055Z,90.90
2017-11-29T17:13:39.556Z,90.90
2017-11-29T17:16:07.085Z,90.90
2017-11-29T17:18:34.584Z,91.00
2017-11-29T17:21:02.843Z,91.30
2017-11-29T17:23:30.417Z,91.30
2017-11-29T17:25:57.924Z,91.10
2017-11-29T17:28:25.436Z,91.20
2017-11-29T17:30:53.711Z,91.00
2017-11-29T17:33:21.245Z,91.00
2017-11-29T17:35:48.764Z,91.30
2017-11-29T17:38:16.291Z,91.20
2017-11-29T17:40:44.552Z,91.00
2017-11-29T17:43:12.057Z,91.30
2017-11-29T17:45:39.584Z,91.20
2017-11-29T17:48:07.860Z,91.30
2017-11-29T17:50:36.155Z,91.20
2017-11-29T17:53:03.664Z,91.20
2017-11-29T17:55:31.190Z,91.20
2017-11-29T17:57:58.730Z,91.00
2017-11-29T18:00:26.264Z,91.20
2017-11-29T18:02:53.792Z,91.40
2017-11-29T18:05:21.288Z,91.20
2017-11-29T18:07:49.577Z,91.40
2017-11-29T18:10:17.090Z,91.30
2017-11-29T18:12:44.607Z,91.40
2017-11-29T18:15:12.104Z,91.30
2017-11-29T18:17:39.618Z,91.30
2017-11-29T18:20:07.145Z,91.20
2017-11-29T18:22:34.656Z,91.20
2017-11-29T18:25:02.176Z,91.20
2017-11-29T18:27:30.452Z,91.20
2017-11-29T18:29:57.983Z,91.20
2017-11-29T18:32:25.500Z,91.30
2017-11-29T18:34:53.037Z,91.20
2017-11-29T18:37:21.299Z,91.20
2017-11-29T18:39:49.559Z,91.30
2017-11-29T18:42:17.084Z,91.30
2017-11-29T18:44:44.589Z,91.50
2017-11-29T18:47:12.881Z,91.50
2017-11-29T18:49:40.399Z,91.50
2017-11-29T18:52:07.909Z,91.50
2017-11-29T18:54:35.437Z,91.50
2017-11-29T18:57:02.955Z,91.40
2017-11-29T18:59:30.484Z,91.30
2017-11-29T19:01:57.984Z,91.40
2017-11-29T19:04:25.518Z,91.90
2017-11-29T19:06:53.031Z,92.10
2017-11-29T19:09:20.564Z,92.10
2017-11-29T19:11:48.073Z,92.30
2017-11-29T19:14:15.582Z,92.00
2017-11-29T19:16:43.104Z,91.90
2017-11-29T19:19:10.619Z,91.90
2017-11-29T19:21:38.134Z,91.90
2017-11-29T19:24:05.632Z,91.90
2017-11-29T19:26:33.155Z,91.90
2017-11-29T19:29:00.652Z,91.80
2017-11-29T19:31:28.171Z,91.60
2017-11-29T19:33:55.668Z,91.60
2017-11-29T19:36:23.164Z,91.80
2017-11-29T19:38:50.694Z,91.90
2017-11-29T19:41:18.966Z,92.00
2017-11-29T19:43:47.266Z,91.90
2017-11-29T19:46:14.776Z,91.80
2017-11-29T19:48:42.280Z,92.00
2017-11-29T19:51:10.572Z,91.90
2017-11-29T19:53:38.072Z,91.90
2017-11-29T19:56:05.591Z,92.10
2017-11-29T19:58:33.098Z,92.10
2017-11-29T20:01:00.623Z,92.20
2017-11-29T20:03:28.124Z,92.20
2017-11-29T20:05:55.632Z,92.00
2017-11-29T20:08:23.167Z,91.90
2017-11-29T20:10:51.435Z,91.90
2017-11-29T20:13:19.720Z,92.00
2017-11-29T20:15:47.993Z,92.10
2017-11-29T20:18:16.284Z,92.00
2017-11-29T20:20:43.787Z,92.00
2017-11-29T20:23:11.294Z,92.00
2017-11-29T20:25:38.812Z,92.20
2017-11-29T20:28:06.315Z,92.30
2017-11-29T20:30:33.840Z,92.20
2017-11-29T20:33:01.341Z,92.30
2017-11-29T20:35:29.203Z,92.40
2017-11-29T20:37:56.724Z,92.30
2017-11-29T20:40:25.828Z,92.50
2017-11-29T20:42:54.123Z,92.40
2017-11-29T20:45:21.632Z,92.40
2017-11-29T20:47:49.164Z,92.30
2017-11-29T20:50:16.668Z,92.40
2017-11-29T20:52:55.002Z,92.30
2017-11-29T20:55:22.503Z,92.30
2017-11-29T20:57:49.999Z,92.50
2017-11-29T21:00:17.525Z,92.50
2017-11-29T21:02:45.028Z,92.40
2017-11-29T21:05:13.315Z,92.50
2017-11-29T21:07:41.583Z,92.60
2017-11-29T21:10:09.107Z,92.60
2017-11-29T21:12:36.632Z,92.70
2017-11-29T21:15:04.139Z,92.70
2017-11-29T21:17:31.658Z,92.70
2017-11-29T21:19:59.165Z,92.60
2017-11-29T21:22:26.692Z,92.60
2017-11-29T21:24:54.196Z,92.60
2017-11-29T21:27:22.468Z,92.70
2017-11-29T21:29:50.764Z,92.70
2017-11-29T21:32:18.281Z,92.70
2017-11-29T21:34:45.795Z,92.80
2017-11-29T21:37:13.296Z,92.70
2017-11-29T21:39:40.825Z,92.70
2017-11-29T21:42:08.337Z,92.90
2017-11-29T21:44:36.608Z,92.90
2017-11-29T21:47:04.132Z,92.90
2017-11-29T21:49:31.642Z,92.80
2017-11-29T21:51:59.185Z,92.80
2017-11-29T21:54:27.450Z,92.70
2017-11-29T21:56:54.980Z,92.70
2017-11-29T21:59:22.507Z,92.50
2017-11-29T22:01:50.024Z,92.40
2017-11-29T22:04:17.552Z,92.30
2017-11-29T22:06:45.067Z,92.10
2017-11-29T22:09:13.354Z,91.80
2017-11-29T22:11:40.864Z,91.80
2017-11-29T22:14:08.392Z,91.90
2017-11-29T22:16:35.896Z,91.90
2017-11-29T22:19:03.422Z,91.80
2017-11-29T22:21:30.939Z,91.90
2017-11-29T22:23:59.203Z,92.10
2017-11-29T22:26:27.520Z,92.20
2017-11-29T22:28:55.023Z,92.20
2017-11-29T22:31:22.540Z,92.20
2017-11-29T22:33:50.055Z,92.30
2017-11-29T22:36:18.353Z,92.50
2017-11-29T22:38:45.852Z,92.50
2017-11-29T22:41:13.352Z,92.60
2017-11-29T22:43:40.884Z,92.70
2017-11-29T22:46:09.253Z,92.50
2017-11-29T22:48:36.780Z,92.50
2017-11-29T22:51:04.311Z,92.50
2017-11-29T22:53:31.837Z,92.30
2017-11-29T22:55:59.390Z,92.40
2017-11-29T22:58:26.947Z,92.30
2017-11-29T23:00:54.465Z,92.30
2017-11-29T23:03:22.004Z,92.10
2017-11-29T23:05:49.539Z,92.00
2017-11-29T23:08:17.839Z,92.50
2017-11-29T23:10:46.142Z,92.10
2017-11-29T23:13:13.657Z,92.00
2017-11-29T23:15:41.188Z,91.90
2017-11-29T23:18:08.790Z,91.80
2017-11-29T23:20:37.072Z,91.70
2017-11-29T23:23:05.377Z,91.70
2017-11-29T23:25:32.885Z,91.70
2017-11-29T23:28:00.413Z,91.70
2017-11-29T23:30:27.917Z,91.80
2017-11-29T23:32:56.207Z,91.90
2017-11-29T23:35:23.710Z,91.90
2017-11-29T23:37:51.216Z,91.80
2017-11-29T23:40:18.746Z,92.00
2017-11-29T23:42:47.027Z,91.90
2017-11-29T23:45:14.556Z,91.90
2017-11-29T23:47:42.060Z,92.00
2017-11-29T23:50:09.584Z,92.00
2017-11-29T23:52:37.184Z,92.10
2017-11-29T23:55:05.472Z,92.10
2017-11-29T23:57:33.738Z,92.20
